Sunday, May 27, 2018, 9:28 AM EDT
Back to Local

KFZY, Fulton Oswego County Airport

Location: Fulton, NY, United States Lat: 43.35
Local Time: 9:28 AM EDT (13:28 GMT) Lon: -76.383
Time Zone: US/Eastern Elev: 475 ft

Show me the last for .
Show Decoded

2018-05-27 08:54 METAR KFZY 271254Z AUTO VRB04KT 10SM CLR 22/17 A2996 RMK AO2 SLP143 T02170167 =
2018-05-27 07:54 METAR KFZY 271154Z AUTO 14004KT 10SM OVC120 21/16 A2994 RMK AO2 SLP137 T02060161
                 10206 20161 53016 =
2018-05-27 06:54 METAR KFZY 271054Z AUTO VRB03KT 10SM CLR 20/16 A2993 RMK AO2 SLP131 T02000161 =
2018-05-27 05:54 METAR KFZY 270954Z AUTO 00000KT 10SM FEW080 19/16 A2991 RMK AO2 SLP124 T01890161
                 =
2018-05-27 04:54 METAR KFZY 270854Z AUTO 00000KT 10SM BKN085 19/16 A2990 RMK AO2 SLP121 T01890161
                 53005 =
2018-05-27 03:54 METAR KFZY 270754Z AUTO VRB03KT 10SM CLR 19/16 A2989 RMK AO2 SLP118 T01940161 =
2018-05-27 02:54 METAR KFZY 270654Z AUTO 00000KT 9SM CLR 17/15 A2989 RMK AO2 SLP117 T01670150 =
2018-05-27 01:54 METAR KFZY 270554Z AUTO 00000KT 9SM CLR 17/15 A2988 RMK AO2 SLP115 T01720150
                 10228 20161 55002 =
2018-05-27 00:54 METAR KFZY 270454Z AUTO 00000KT 10SM CLR 17/15 A2988 RMK AO2 SLP116 T01670150
                 402720167 =
2018-05-26 23:54 METAR KFZY 270354Z AUTO 00000KT 10SM CLR 18/16 A2989 RMK AO2 SLP117 T01830156 =
2018-05-26 22:54 METAR KFZY 270254Z AUTO 00000KT 10SM CLR 19/15 A2989 RMK AO2 SLP117 T01890150
                 51013 =
2018-05-26 21:54 METAR KFZY 270154Z AUTO 04004KT 10SM CLR 21/15 A2988 RMK AO2 SLP115 T02060150 =
2018-05-26 20:54 METAR KFZY 270054Z AUTO 00000KT 10SM CLR 21/16 A2986 RMK AO2 SLP108 T02110156 =
2018-05-26 19:54 METAR KFZY 262354Z AUTO 03003KT 10SM CLR 23/16 A2985 RMK AO2 SLP105 T02280156
                 10272 20222 53014 =
2018-05-26 18:54 METAR KFZY 262254Z AUTO 03006KT 10SM CLR 23/16 A2984 RMK AO2 SLP100 T02330156 =
2018-05-26 17:54 METAR KFZY 262154Z AUTO 02007KT 10SM CLR 26/16 A2981 RMK AO2 SLP092 T02560156 =
2018-05-26 16:54 METAR KFZY 262054Z AUTO VRB05KT 10SM CLR 27/16 A2981 RMK AO2 SLP091 T02670156
                 58003 =
2018-05-26 15:54 METAR KFZY 261954Z AUTO 27006KT 10SM CLR 27/15 A2982 RMK AO2 SLP094 T02720150 =
2018-05-26 14:54 METAR KFZY 261854Z AUTO 30005KT 10SM CLR 27/15 A2982 RMK AO2 SLP095 T02670150 =
2018-05-26 13:54 METAR KFZY 261754Z AUTO 28007KT 10SM CLR 26/14 A2982 RMK AO2 SLP094 T02560139
                 10261 20206 50003 =
2018-05-26 12:54 METAR KFZY 261654Z AUTO 27007KT 10SM CLR 26/14 A2982 RMK AO2 SLP095 T02560139 =
2018-05-26 11:54 METAR KFZY 261554Z AUTO 28007KT 10SM CLR 24/13 A2982 RMK AO2 SLP094 T02440133 =
2018-05-26 10:54 METAR KFZY 261454Z AUTO 29007KT 10SM CLR 25/14 A2981 RMK AO2 SLP091 T02500139
                 51005 =
2018-05-26 09:54 METAR KFZY 261354Z AUTO 30007KT 10SM CLR 24/13 A2981 RMK AO2 SLP090 T02390128 =

Support USWX by starting your Amazon purchase here.